createdAt,value
2018-02-26T00:00:13.924Z,68.00
2018-02-26T00:02:41.388Z,68.10
2018-02-26T00:05:08.840Z,68.20
2018-02-26T00:07:36.304Z,68.30
2018-02-26T00:10:03.733Z,68.40
2018-02-26T00:12:31.206Z,68.50
2018-02-26T00:14:58.665Z,68.60
2018-02-26T00:17:26.117Z,68.50
2018-02-26T00:19:53.576Z,68.40
2018-02-26T00:25:19.913Z,68.80
2018-02-26T00:27:47.351Z,68.80
2018-02-26T00:30:14.764Z,68.70
2018-02-26T00:32:42.201Z,68.80
2018-02-26T00:35:09.633Z,68.90
2018-02-26T00:37:37.067Z,69.00
2018-02-26T00:40:04.518Z,69.00
2018-02-26T00:42:31.972Z,69.20
2018-02-26T00:44:59.401Z,69.10
2018-02-26T00:47:26.838Z,69.20
2018-02-26T00:49:54.259Z,69.20
2018-02-26T00:52:21.694Z,69.30
2018-02-26T00:54:49.128Z,69.30
2018-02-26T00:57:16.957Z,69.40
2018-02-26T00:59:44.397Z,69.40
2018-02-26T01:02:11.825Z,69.40
2018-02-26T01:04:39.245Z,69.50
2018-02-26T01:07:06.689Z,69.40
2018-02-26T01:09:34.120Z,69.40
2018-02-26T01:12:01.563Z,69.40
2018-02-26T01:14:29.022Z,69.30
2018-02-26T01:16:56.475Z,69.30
2018-02-26T01:19:23.895Z,69.00
2018-02-26T01:21:51.724Z,69.10
2018-02-26T01:24:19.153Z,69.10
2018-02-26T01:26:47.241Z,69.30
2018-02-26T01:29:14.694Z,69.60
2018-02-26T01:31:42.153Z,69.60
2018-02-26T01:34:09.606Z,69.70
2018-02-26T01:36:37.066Z,69.60
2018-02-26T01:39:05.118Z,69.70
2018-02-26T01:41:32.579Z,69.90
2018-02-26T01:44:00.049Z,70.10
2018-02-26T01:46:27.505Z,70.10
2018-02-26T01:48:54.957Z,70.40
2018-02-26T01:51:22.389Z,70.60
2018-02-26T01:53:50.751Z,70.70
2018-02-26T01:56:18.186Z,70.90
2018-02-26T01:58:45.662Z,71.00
2018-02-26T02:01:13.494Z,71.10
2018-02-26T02:03:40.932Z,71.20
2018-02-26T02:06:08.394Z,71.20
2018-02-26T02:08:35.829Z,71.40
2018-02-26T02:11:03.248Z,71.40
2018-02-26T02:13:31.084Z,71.60
2018-02-26T02:15:58.925Z,71.60
2018-02-26T02:18:26.383Z,71.50
2018-02-26T02:20:53.838Z,71.60
2018-02-26T02:23:21.277Z,71.70
2018-02-26T02:25:48.709Z,71.80
2018-02-26T02:28:16.546Z,71.90
2018-02-26T02:30:43.981Z,71.90
2018-02-26T02:33:11.417Z,71.90
2018-02-26T02:35:38.865Z,71.90
2018-02-26T02:38:06.321Z,71.90
2018-02-26T02:40:33.778Z,71.90
2018-02-26T02:43:01.237Z,71.90
2018-02-26T02:45:28.686Z,72.00
2018-02-26T02:47:56.542Z,72.00
2018-02-26T02:50:24.389Z,72.10
2018-02-26T02:52:51.842Z,72.10
2018-02-26T02:55:20.133Z,72.10
2018-02-26T02:57:47.578Z,72.10
2018-02-26T03:00:15.019Z,72.20
2018-02-26T03:02:42.477Z,72.10
2018-02-26T03:05:09.938Z,72.10
2018-02-26T03:07:37.398Z,72.00
2018-02-26T03:10:04.842Z,72.00
2018-02-26T03:12:32.290Z,71.90
2018-02-26T03:14:59.713Z,72.10
2018-02-26T03:17:27.164Z,71.90
2018-02-26T03:19:54.590Z,71.90
2018-02-26T03:22:22.044Z,71.90
2018-02-26T03:24:49.480Z,71.90
2018-02-26T03:27:16.932Z,72.00
2018-02-26T03:29:44.359Z,71.90
2018-02-26T03:32:11.825Z,71.90
2018-02-26T03:34:39.277Z,72.00
2018-02-26T03:37:06.719Z,71.90
2018-02-26T03:39:34.137Z,72.00
2018-02-26T03:42:01.572Z,72.10
2018-02-26T03:44:29.024Z,72.10
2018-02-26T03:46:56.468Z,72.10
2018-02-26T03:49:23.905Z,72.10
2018-02-26T03:51:51.345Z,72.00
2018-02-26T03:54:18.766Z,72.10
2018-02-26T03:56:46.196Z,72.10
2018-02-26T03:59:13.650Z,72.30
2018-02-26T04:01:41.105Z,72.50
2018-02-26T04:04:08.554Z,72.60
2018-02-26T04:06:36.028Z,72.60
2018-02-26T04:09:03.466Z,72.50
2018-02-26T04:11:30.946Z,72.40
2018-02-26T04:13:58.390Z,72.40
2018-02-26T04:16:25.847Z,72.50
2018-02-26T04:18:53.281Z,72.60
2018-02-26T04:21:20.711Z,72.80
2018-02-26T04:23:48.541Z,72.80
2018-02-26T04:26:15.970Z,72.80
2018-02-26T04:28:43.422Z,72.90
2018-02-26T04:31:10.887Z,72.90
2018-02-26T04:33:38.341Z,73.00
2018-02-26T04:36:05.801Z,72.90
2018-02-26T04:38:33.266Z,73.10
2018-02-26T04:41:00.722Z,73.20
2018-02-26T04:43:28.182Z,73.30
2018-02-26T04:45:55.633Z,73.50
2018-02-26T04:48:23.137Z,73.50
2018-02-26T04:50:50.549Z,73.50
2018-02-26T04:53:18.013Z,73.50
2018-02-26T04:55:45.447Z,73.50
2018-02-26T04:58:12.893Z,73.70
2018-02-26T05:00:40.329Z,73.80
2018-02-26T05:03:07.768Z,73.90
2018-02-26T05:05:35.215Z,74.00
2018-02-26T05:08:02.640Z,74.10
2018-02-26T05:10:30.065Z,74.20
2018-02-26T05:12:57.897Z,74.20
2018-02-26T05:15:25.335Z,74.20
2018-02-26T05:17:52.764Z,74.30
2018-02-26T05:20:20.545Z,74.30
2018-02-26T05:22:47.999Z,74.50
2018-02-26T05:25:15.426Z,74.60
2018-02-26T05:27:42.864Z,74.60
2018-02-26T05:30:10.677Z,74.90
2018-02-26T05:32:38.112Z,74.90
2018-02-26T05:35:05.537Z,75.00
2018-02-26T05:37:32.981Z,75.20
2018-02-26T05:40:00.410Z,75.30
2018-02-26T05:42:27.845Z,75.40
2018-02-26T05:44:55.269Z,75.40
2018-02-26T05:47:23.093Z,75.60
2018-02-26T05:49:50.521Z,75.50
2018-02-26T05:52:17.948Z,75.60
2018-02-26T05:54:45.380Z,75.60
2018-02-26T05:57:12.822Z,75.60
2018-02-26T05:59:40.245Z,75.70
2018-02-26T06:02:07.694Z,75.80
2018-02-26T06:04:35.472Z,75.80
2018-02-26T06:07:02.905Z,75.60
2018-02-26T06:12:04.107Z,75.40
2018-02-26T06:14:31.528Z,75.30
2018-02-26T06:16:58.956Z,75.40
2018-02-26T06:19:26.781Z,75.40
2018-02-26T06:21:54.228Z,75.40
2018-02-26T06:24:21.652Z,75.30
2018-02-26T06:26:49.079Z,75.40
2018-02-26T06:29:16.509Z,75.40
2018-02-26T06:31:43.938Z,75.30
2018-02-26T06:34:11.405Z,75.30
2018-02-26T06:36:38.864Z,75.40
2018-02-26T06:39:06.306Z,75.20
2018-02-26T06:41:33.754Z,75.10
2018-02-26T06:44:01.743Z,75.30
2018-02-26T06:46:29.204Z,75.40
2018-02-26T06:48:56.653Z,75.20
2018-02-26T06:51:24.075Z,75.20
2018-02-26T06:53:51.913Z,74.80
2018-02-26T06:56:19.353Z,74.80
2018-02-26T06:58:47.714Z,74.90
2018-02-26T07:01:15.880Z,74.70
2018-02-26T07:03:43.338Z,74.70
2018-02-26T07:06:10.781Z,74.60
2018-02-26T07:08:38.245Z,74.30
2018-02-26T07:17:00.882Z,74.30
2018-02-26T07:25:47.143Z,73.50
2018-02-26T07:28:29.856Z,73.70
2018-02-26T07:31:21.595Z,73.70
2018-02-26T07:42:58.030Z,73.10
2018-02-26T07:51:34.775Z,73.00
2018-02-26T07:54:02.238Z,72.90
2018-02-26T08:16:38.380Z,72.70
2018-02-26T08:19:06.948Z,72.70
2018-02-26T08:21:34.806Z,73.10
2018-02-26T08:24:02.370Z,73.10
2018-02-26T08:38:01.589Z,73.00
2018-02-26T08:43:25.349Z,73.50
2018-02-26T08:48:37.883Z,73.60
2018-02-26T08:51:12.160Z,74.00
2018-02-26T08:53:39.610Z,74.00
2018-02-26T08:56:07.034Z,74.00
2018-02-26T08:58:34.469Z,74.20
2018-02-26T09:01:05.713Z,74.40
2018-02-26T09:03:34.925Z,74.10
2018-02-26T09:06:02.364Z,73.90
2018-02-26T09:08:30.209Z,74.00
2018-02-26T09:10:59.317Z,73.40
2018-02-26T09:13:27.149Z,73.50
2018-02-26T09:15:59.249Z,73.50
2018-02-26T09:18:26.680Z,73.40
2018-02-26T09:20:54.757Z,73.50
2018-02-26T09:23:33.951Z,73.20
2018-02-26T09:26:01.393Z,72.90
2018-02-26T09:28:28.800Z,72.40
2018-02-26T09:30:56.220Z,72.50
2018-02-26T09:33:26.416Z,72.00
2018-02-26T09:35:53.857Z,71.80
2018-02-26T09:38:21.316Z,71.20
2018-02-26T09:40:48.774Z,71.30
2018-02-26T09:43:16.249Z,71.10
2018-02-26T09:45:43.701Z,71.00
2018-02-26T09:48:11.114Z,71.40
2018-02-26T09:53:36.238Z,71.90
2018-02-26T09:56:03.644Z,72.60
2018-02-26T09:58:51.994Z,73.40
2018-02-26T10:03:58.956Z,73.70
2018-02-26T10:06:26.372Z,73.70
2018-02-26T10:08:53.834Z,73.90
2018-02-26T10:11:30.548Z,74.40
2018-02-26T10:13:58.058Z,74.70
2018-02-26T10:16:25.538Z,74.40
2018-02-26T10:19:04.612Z,74.60
2018-02-26T10:27:07.634Z,74.10
2018-02-26T10:29:35.102Z,73.10
2018-02-26T10:32:04.380Z,72.60
2018-02-26T10:34:31.907Z,72.30
2018-02-26T10:36:59.320Z,71.40
2018-02-26T10:39:26.752Z,70.50
2018-02-26T10:41:54.188Z,68.70
2018-02-26T10:44:22.008Z,66.40
2018-02-26T10:46:49.437Z,66.50
2018-02-26T10:49:16.891Z,66.30
2018-02-26T10:51:44.318Z,65.80
2018-02-26T10:54:12.158Z,64.70
2018-02-26T10:56:39.601Z,64.70
2018-02-26T10:59:07.022Z,64.90
2018-02-26T11:01:34.761Z,64.60
2018-02-26T11:04:02.193Z,67.70
2018-02-26T11:06:29.618Z,71.30
2018-02-26T11:08:57.077Z,72.10
2018-02-26T11:11:25.649Z,73.00
2018-02-26T11:13:53.081Z,72.90
2018-02-26T11:19:41.169Z,74.60
2018-02-26T11:22:08.584Z,76.50
2018-02-26T11:24:36.032Z,76.90
2018-02-26T11:27:11.081Z,76.30
2018-02-26T11:29:38.919Z,75.50
2018-02-26T11:32:06.349Z,75.50
2018-02-26T11:34:33.797Z,74.80
2018-02-26T11:37:01.229Z,74.00
2018-02-26T11:39:28.760Z,73.50
2018-02-26T11:41:56.580Z,70.90
2018-02-26T11:44:24.011Z,70.90
2018-02-26T11:46:51.440Z,69.60
2018-02-26T11:49:19.260Z,67.20
2018-02-26T11:51:46.691Z,67.20
2018-02-26T11:54:14.125Z,66.90
2018-02-26T11:56:42.004Z,66.50
2018-02-26T11:59:09.451Z,66.50
2018-02-26T12:01:37.903Z,63.60
2018-02-26T12:04:07.166Z,63.60
2018-02-26T12:06:35.236Z,63.30
2018-02-26T12:09:02.717Z,63.40
2018-02-26T12:11:32.810Z,63.70
2018-02-26T12:14:00.324Z,65.00
2018-02-26T12:16:33.916Z,65.70
2018-02-26T12:19:02.144Z,66.30
2018-02-26T12:21:29.654Z,66.90
2018-02-26T12:23:57.115Z,68.00
2018-02-26T12:26:24.962Z,68.00
2018-02-26T12:28:52.420Z,68.00
2018-02-26T12:31:19.875Z,66.80
2018-02-26T12:33:47.329Z,65.80
2018-02-26T12:36:14.802Z,65.80
2018-02-26T12:38:43.181Z,65.70
2018-02-26T12:41:19.217Z,63.90
2018-02-26T12:43:49.798Z,62.40
2018-02-26T12:46:24.869Z,61.80
2018-02-26T12:48:52.330Z,61.90
2018-02-26T12:51:20.126Z,62.50
2018-02-26T12:53:47.978Z,62.60
2018-02-26T12:59:08.031Z,61.70
2018-02-26T13:01:35.480Z,61.80
2018-02-26T13:04:02.921Z,61.90
2018-02-26T13:06:30.741Z,62.10
2018-02-26T13:08:58.177Z,62.10
2018-02-26T13:11:25.605Z,62.20
2018-02-26T13:13:53.037Z,62.20
2018-02-26T13:16:20.477Z,62.50
2018-02-26T13:18:47.901Z,63.20
2018-02-26T13:21:15.353Z,63.60
2018-02-26T13:23:42.801Z,63.50
2018-02-26T13:26:10.232Z,63.60
2018-02-26T13:28:38.049Z,64.00
2018-02-26T13:31:05.656Z,64.00
2018-02-26T13:33:33.093Z,64.10
2018-02-26T13:36:00.516Z,64.20
2018-02-26T13:38:27.937Z,64.40
2018-02-26T13:40:55.384Z,64.20
2018-02-26T13:43:23.196Z,63.10
2018-02-26T13:45:50.637Z,63.10
2018-02-26T13:48:18.053Z,63.60
2018-02-26T13:50:45.483Z,63.80
2018-02-26T13:53:12.914Z,63.10
2018-02-26T13:55:40.353Z,63.10
2018-02-26T13:58:07.776Z,63.40
2018-02-26T14:00:35.605Z,63.10
2018-02-26T14:03:03.034Z,63.10
2018-02-26T14:05:30.494Z,62.70
2018-02-26T14:07:58.001Z,63.10
2018-02-26T14:10:25.598Z,62.80
2018-02-26T14:12:53.033Z,62.80
2018-02-26T14:15:20.506Z,62.90
2018-02-26T14:17:48.629Z,62.80
2018-02-26T14:20:16.790Z,62.50
2018-02-26T14:22:44.294Z,62.30
2018-02-26T14:28:06.379Z,62.80
2018-02-26T14:30:33.796Z,63.00
2018-02-26T14:33:01.617Z,63.10
2018-02-26T14:35:29.068Z,63.10
2018-02-26T14:37:56.489Z,63.20
2018-02-26T14:40:23.921Z,62.90
2018-02-26T14:42:51.349Z,62.60
2018-02-26T14:45:18.790Z,62.80
2018-02-26T14:47:46.216Z,62.80
2018-02-26T14:50:14.053Z,63.30
2018-02-26T14:52:41.466Z,63.30
2018-02-26T14:55:08.911Z,63.20
2018-02-26T14:57:36.368Z,63.30
2018-02-26T15:00:03.835Z,63.10
2018-02-26T15:02:31.268Z,63.60
2018-02-26T15:04:58.697Z,63.70
2018-02-26T15:07:26.124Z,63.80
2018-02-26T15:09:53.568Z,63.60
2018-02-26T15:12:21.003Z,63.50
2018-02-26T15:14:48.440Z,63.50
2018-02-26T15:17:16.274Z,64.10
2018-02-26T15:19:43.700Z,64.10
2018-02-26T15:22:11.122Z,64.20
2018-02-26T15:24:38.555Z,64.10
2018-02-26T15:27:05.972Z,64.00
2018-02-26T15:29:33.416Z,64.00
2018-02-26T15:32:00.853Z,63.00
2018-02-26T15:34:28.280Z,62.80
2018-02-26T15:36:55.713Z,62.90
2018-02-26T15:39:23.130Z,63.10
2018-02-26T15:41:50.598Z,63.20
2018-02-26T15:44:18.058Z,63.10
2018-02-26T15:46:45.492Z,63.00
2018-02-26T15:49:12.916Z,62.90
2018-02-26T15:51:40.352Z,63.10
2018-02-26T15:54:10.221Z,63.50
2018-02-26T15:59:15.119Z,63.10
2018-02-26T16:01:42.580Z,63.40
2018-02-26T16:04:10.000Z,63.70
2018-02-26T16:09:31.420Z,63.80
2018-02-26T16:12:02.626Z,63.30
2018-02-26T16:14:30.740Z,63.30
2018-02-26T16:16:58.725Z,63.30
2018-02-26T16:19:40.946Z,63.30
2018-02-26T16:25:06.062Z,62.80
2018-02-26T16:27:34.410Z,62.70
2018-02-26T16:30:01.897Z,62.70
2018-02-26T16:32:29.447Z,62.30
2018-02-26T16:34:56.950Z,62.50
2018-02-26T16:37:24.382Z,62.60
2018-02-26T16:39:51.824Z,62.90
2018-02-26T16:42:19.300Z,62.80
2018-02-26T16:44:46.684Z,63.20
2018-02-26T16:47:16.229Z,63.20
2018-02-26T16:49:43.659Z,63.50
2018-02-26T17:07:34.998Z,65.50
2018-02-26T17:10:04.187Z,65.70
2018-02-26T17:12:31.633Z,65.90
2018-02-26T17:14:59.107Z,66.30
2018-02-26T17:17:26.571Z,66.50
2018-02-26T17:19:54.033Z,66.50
2018-02-26T17:22:21.498Z,66.60
2018-02-26T17:24:48.977Z,66.30
2018-02-26T17:27:16.499Z,66.10
2018-02-26T17:29:43.922Z,66.00
2018-02-26T17:32:11.417Z,66.20
2018-02-26T17:34:38.882Z,66.30
2018-02-26T17:37:06.348Z,66.30
2018-02-26T17:39:33.808Z,66.70
2018-02-26T17:42:01.282Z,66.80
2018-02-26T17:44:28.717Z,67.00
2018-02-26T17:46:56.162Z,67.00
2018-02-26T17:49:23.610Z,67.10
2018-02-26T17:51:51.074Z,67.30
2018-02-26T17:54:18.522Z,66.90
2018-02-26T17:56:45.986Z,67.10
2018-02-26T18:01:45.501Z,67.20
2018-02-26T18:04:12.958Z,67.30
2018-02-26T18:06:40.416Z,67.50
2018-02-26T18:09:07.864Z,67.50
2018-02-26T18:11:35.347Z,67.70
2018-02-26T18:14:03.323Z,67.80
2018-02-26T18:16:30.758Z,67.80
2018-02-26T18:18:59.037Z,67.80
2018-02-26T18:21:26.465Z,67.80
2018-02-26T18:23:53.898Z,68.00
2018-02-26T18:26:21.720Z,68.00
2018-02-26T18:28:49.173Z,68.00
2018-02-26T19:00:47.513Z,69.70
2018-02-26T19:03:15.565Z,70.00
2018-02-26T19:05:43.405Z,70.90
2018-02-26T19:08:10.862Z,70.90
2018-02-26T19:10:38.275Z,71.10
2018-02-26T19:13:05.707Z,71.40
2018-02-26T19:15:33.532Z,71.90
2018-02-26T19:18:00.964Z,71.90
2018-02-26T19:20:28.392Z,72.30
2018-02-26T19:22:55.815Z,72.60
2018-02-26T19:25:23.247Z,72.90
2018-02-26T19:27:50.674Z,73.30
2018-02-26T19:30:18.096Z,73.80
2018-02-26T19:32:45.924Z,74.40
2018-02-26T19:35:13.362Z,74.40
2018-02-26T19:37:40.804Z,74.70
2018-02-26T19:40:08.221Z,74.90
2018-02-26T19:42:35.673Z,75.20
2018-02-26T19:45:03.100Z,75.40
2018-02-26T19:47:30.532Z,75.70
2018-02-26T19:49:58.001Z,75.90
2018-02-26T19:52:25.396Z,76.20
2018-02-26T19:54:52.849Z,76.40
2018-02-26T19:57:20.282Z,76.50
2018-02-26T19:59:47.854Z,76.70
2018-02-26T20:02:15.379Z,77.00
2018-02-26T20:04:42.809Z,77.40
2018-02-26T20:07:10.649Z,77.70
2018-02-26T20:09:38.087Z,77.70
2018-02-26T20:12:05.495Z,77.90
2018-02-26T20:14:32.920Z,77.90
2018-02-26T20:17:00.355Z,78.00
2018-02-26T20:19:27.800Z,78.20
2018-02-26T20:21:55.232Z,78.40
2018-02-26T20:24:22.665Z,78.60
2018-02-26T20:26:50.484Z,79.00
2018-02-26T20:29:17.917Z,79.00
2018-02-26T20:31:45.480Z,79.00
2018-02-26T20:34:12.918Z,79.00
2018-02-26T20:36:40.357Z,79.10
2018-02-26T20:39:08.190Z,79.00
2018-02-26T20:41:35.627Z,79.00
2018-02-26T20:44:03.052Z,79.10
2018-02-26T20:46:30.488Z,79.20
2018-02-26T20:48:57.930Z,79.00
2018-02-26T20:51:25.360Z,79.00
2018-02-26T20:53:52.785Z,79.00
2018-02-26T20:56:20.235Z,79.10
2018-02-26T20:58:47.681Z,78.90
2018-02-26T21:01:15.515Z,79.00
2018-02-26T21:03:42.929Z,79.00
2018-02-26T21:06:10.402Z,79.00
2018-02-26T21:08:37.848Z,79.00
2018-02-26T21:11:05.293Z,79.10
2018-02-26T21:13:32.740Z,79.40
2018-02-26T21:16:00.207Z,79.30
2018-02-26T21:18:27.637Z,79.20
2018-02-26T21:20:55.461Z,79.30
2018-02-26T21:23:22.889Z,79.30
2018-02-26T21:25:50.325Z,79.50
2018-02-26T21:28:17.753Z,79.60
2018-02-26T21:30:45.575Z,79.70
2018-02-26T21:33:13.064Z,79.70
2018-02-26T21:35:40.475Z,79.80
2018-02-26T21:38:07.913Z,80.00
2018-02-26T21:40:35.341Z,80.00
2018-02-26T21:43:02.777Z,80.10
2018-02-26T21:45:30.199Z,80.20
2018-02-26T21:47:57.647Z,80.20
2018-02-26T21:50:25.125Z,80.40
2018-02-26T21:52:52.565Z,80.40
2018-02-26T22:08:26.273Z,80.10
2018-02-26T22:10:53.718Z,80.20
2018-02-26T22:13:21.144Z,80.30
2018-02-26T22:15:48.960Z,80.30
2018-02-26T22:18:16.392Z,80.20
2018-02-26T22:20:43.827Z,80.10
2018-02-26T22:23:11.244Z,80.30
2018-02-26T22:25:38.673Z,80.30
2018-02-26T22:28:06.198Z,80.30
2018-02-26T22:30:33.614Z,80.30
2018-02-26T22:33:01.076Z,80.30
2018-02-26T22:35:28.481Z,80.40
2018-02-26T22:37:55.921Z,80.40
2018-02-26T22:40:23.770Z,80.40
2018-02-26T22:42:51.205Z,80.40
2018-02-26T22:45:18.632Z,80.50
2018-02-26T22:47:48.742Z,80.40
2018-02-26T22:50:16.180Z,80.50
2018-02-26T22:52:43.613Z,80.70
2018-02-26T22:55:11.432Z,80.50
2018-02-26T22:57:38.864Z,80.50
2018-02-26T23:00:06.366Z,80.40
2018-02-26T23:02:33.798Z,80.20
2018-02-26T23:05:01.278Z,80.10
2018-02-26T23:07:28.709Z,79.80
2018-02-26T23:09:56.166Z,79.70
2018-02-26T23:12:23.629Z,79.60
2018-02-26T23:14:51.077Z,79.50
2018-02-26T23:17:18.545Z,79.50
2018-02-26T23:19:46.009Z,79.40
2018-02-26T23:22:13.554Z,79.20
2018-02-26T23:24:40.978Z,79.20
2018-02-26T23:27:08.433Z,79.30
2018-02-26T23:29:36.809Z,79.50
2018-02-26T23:32:04.665Z,79.90
2018-02-26T23:34:42.713Z,79.90
2018-02-26T23:46:08.242Z,79.90
2018-02-26T23:52:22.144Z,80.00
